Terminal Aerodrome Forecast
Issued by NWS Billings, MT

Home | Current Version | Previous Version | Text Only | Print | Product List | Glossary Off
Versions: 1 2 3 4 5 6 7 8 9 10 11 12

000
FTUS45 KBYZ 292335
TAFMLS
TAF
KMLS 292335Z 3000/3024 14012G17KT P6SM SCT025 BKN040
     FM300200 11007KT P6SM FEW025 BKN050
     FM301100 07006KT P6SM BKN025 OVC040
     FM301500 07009KT P6SM SCT030 OVC050
     FM301800 08010KT P6SM SCT050 BKN100=

USA.gov is the U.S. government's official web portal to all federal, state and local government web resources and services.